createdAt,value
2023-02-26T00:05:24.632Z,1011.9
2023-02-26T00:11:01.499Z,1011.9
2023-02-26T00:16:42.509Z,1011.9
2023-02-26T00:22:09.367Z,1011.9
2023-02-26T00:27:31.816Z,1012.1
2023-02-26T00:33:15.071Z,1012.1
2023-02-26T00:38:49.489Z,1012.2
2023-02-26T00:44:29.150Z,1012.2
2023-02-26T00:49:53.666Z,1012.4
2023-02-26T00:55:12.367Z,1012.3
2023-02-26T01:00:59.194Z,1012.3
2023-02-26T01:06:19.933Z,1012.4
2023-02-26T01:12:06.813Z,1012.4
2023-02-26T01:17:42.151Z,1012.4
2023-02-26T01:23:00.588Z,1012.3
2023-02-26T01:28:48.132Z,1012.2
2023-02-26T01:34:11.742Z,1012.2
2023-02-26T01:39:56.600Z,1012.3
2023-02-26T01:45:17.204Z,1012.4
2023-02-26T01:51:13.269Z,1012.4
2023-02-26T01:56:43.581Z,1012.4
2023-02-26T02:02:03.926Z,1012.4
2023-02-26T02:07:44.368Z,1012.5
2023-02-26T02:13:31.060Z,1012.4
2023-02-26T02:24:30.373Z,1012.4
2023-02-26T02:30:11.663Z,1012.5
2023-02-26T02:35:24.419Z,1012.5
2023-02-26T02:41:03.978Z,1012.6
2023-02-26T02:46:33.513Z,1012.6
2023-02-26T02:52:07.178Z,1012.6
2023-02-26T02:57:48.458Z,1012.6
2023-02-26T03:03:13.292Z,1012.6
2023-02-26T03:09:03.902Z,1012.6
2023-02-26T03:14:19.991Z,1012.5
2023-02-26T03:20:09.718Z,1012.5
2023-02-26T03:25:24.974Z,1012.5
2023-02-26T03:31:16.830Z,1012.6
2023-02-26T03:36:30.004Z,1012.7
2023-02-26T03:42:10.143Z,1012.9
2023-02-26T03:47:55.771Z,1012.9
2023-02-26T03:53:12.860Z,1012.9
2023-02-26T03:58:46.009Z,1013
2023-02-26T04:04:31.377Z,1012.9
2023-02-26T04:10:07.545Z,1012.9
2023-02-26T04:15:33.184Z,1013
2023-02-26T04:21:15.023Z,1013
2023-02-26T04:26:36.698Z,1012.9
2023-02-26T04:32:13.486Z,1013.1
2023-02-26T04:38:05.714Z,1013.1
2023-02-26T04:43:23.135Z,1013.1
2023-02-26T04:48:55.523Z,1013.1
2023-02-26T04:54:41.100Z,1013.2
2023-02-26T05:00:10.678Z,1013.2
2023-02-26T05:05:40.499Z,1013.3
2023-02-26T05:11:11.951Z,1013.2
2023-02-26T05:16:46.429Z,1013.3
2023-02-26T05:22:27.834Z,1013.3
2023-02-26T05:28:08.191Z,1013.2
2023-02-26T05:33:19.654Z,1013.3
2023-02-26T05:44:34.463Z,1013.3
2023-02-26T05:50:23.966Z,1013.4
2023-02-26T05:55:49.239Z,1013.3
2023-02-26T06:01:11.175Z,1013.1
2023-02-26T06:06:41.515Z,1013.2
2023-02-26T06:12:19.824Z,1013.2
2023-02-26T06:18:01.950Z,1013.2
2023-02-26T06:23:17.241Z,1013.3
2023-02-26T06:29:10.069Z,1013.2
2023-02-26T06:34:35.063Z,1013.3
2023-02-26T06:40:13.752Z,1013.3
2023-02-26T06:45:48.296Z,1013.4
2023-02-26T06:51:32.451Z,1013.4
2023-02-26T06:57:00.696Z,1013.6
2023-02-26T07:02:18.495Z,1013.6
2023-02-26T07:07:58.692Z,1013.6
2023-02-26T07:13:37.477Z,1013.7
2023-02-26T07:18:54.147Z,1013.7
2023-02-26T07:24:43.717Z,1013.6
2023-02-26T07:30:18.868Z,1013.7
2023-02-26T07:35:34.113Z,1013.6
2023-02-26T07:41:06.997Z,1013.5
2023-02-26T07:46:50.560Z,1013.5
2023-02-26T07:52:40.156Z,1013.4
2023-02-26T07:57:50.616Z,1013.4
2023-02-26T08:03:38.951Z,1013.4
2023-02-26T08:09:06.611Z,1013.2
2023-02-26T08:14:55.931Z,1013.3
2023-02-26T08:20:20.856Z,1013.2
2023-02-26T08:26:01.770Z,1013.3
2023-02-26T08:31:31.801Z,1013.2
2023-02-26T08:36:51.189Z,1013.3
2023-02-26T08:42:47.550Z,1013.1
2023-02-26T08:48:15.487Z,1013.2
2023-02-26T08:53:43.935Z,1013.1
2023-02-26T08:59:13.030Z,1013
2023-02-26T09:04:50.676Z,1013
2023-02-26T09:10:23.211Z,1013.1
2023-02-26T09:15:52.863Z,1013.3
2023-02-26T09:21:34.707Z,1013.3
2023-02-26T09:27:06.316Z,1013.6
2023-02-26T09:32:54.375Z,1013.5
2023-02-26T09:38:09.279Z,1013.6
2023-02-26T09:44:04.348Z,1013.5
2023-02-26T09:49:46.526Z,1013.5
2023-02-26T09:55:13.212Z,1013.7
2023-02-26T10:00:35.801Z,1013.9
2023-02-26T10:06:13.561Z,1013.9
2023-02-26T10:12:03.566Z,1014
2023-02-26T10:17:37.285Z,1014.1
2023-02-26T10:22:50.091Z,1013.9
2023-02-26T10:28:18.346Z,1013.7
2023-02-26T10:33:56.588Z,1013.8
2023-02-26T10:39:38.077Z,1014.3
2023-02-26T10:50:55.692Z,1014.4
2023-02-26T10:56:11.974Z,1014.5
2023-02-26T11:07:34.454Z,1014.2
2023-02-26T11:13:00.455Z,1014.3
2023-02-26T11:35:21.379Z,1014
2023-02-26T11:46:29.216Z,1013.9
2023-02-26T11:52:00.937Z,1013.8
2023-02-26T11:57:47.779Z,1013.8
2023-02-26T12:03:23.052Z,1013.6
2023-02-26T12:25:27.959Z,1013.8
2023-02-26T12:31:27.931Z,1013.8
2023-02-26T12:36:51.380Z,1013.6
2023-02-26T12:42:39.160Z,1013.6
2023-02-26T12:47:57.088Z,1013.7
2023-02-26T12:53:40.905Z,1013.7
2023-02-26T12:59:04.369Z,1013.8
2023-02-26T13:05:02.094Z,1014
2023-02-26T13:10:11.595Z,1014
2023-02-26T13:16:02.784Z,1014.2
2023-02-26T13:21:21.094Z,1014.3
2023-02-26T13:27:00.164Z,1014.4
2023-02-26T13:32:37.200Z,1014.4
2023-02-26T13:38:07.160Z,1014.3
2023-02-26T13:43:59.262Z,1014.5
2023-02-26T13:49:06.946Z,1014.4
2023-02-26T13:55:01.456Z,1014.5
2023-02-26T14:00:20.409Z,1014
2023-02-26T14:05:53.982Z,1014.2
2023-02-26T14:11:28.499Z,1013.9
2023-02-26T14:17:19.869Z,1013.9
2023-02-26T14:22:54.153Z,1013.9
2023-02-26T14:28:19.661Z,1013.6
2023-02-26T14:33:58.931Z,1013.6
2023-02-26T14:39:23.912Z,1013.7
2023-02-26T14:45:04.881Z,1014
2023-02-26T14:50:46.213Z,1014
2023-02-26T14:56:29.075Z,1014
2023-02-26T15:01:58.464Z,1014
2023-02-26T15:07:30.931Z,1014
2023-02-26T15:12:56.017Z,1014.2
2023-02-26T15:18:28.297Z,1014.4
2023-02-26T15:24:19.823Z,1014.3
2023-02-26T15:29:35.354Z,1014.5
2023-02-26T15:35:11.148Z,1014.5
2023-02-26T15:40:59.576Z,1014.7
2023-02-26T15:46:24.750Z,1015.2
2023-02-26T15:52:02.848Z,1015.2
2023-02-26T15:57:42.174Z,1015.2
2023-02-26T16:03:09.431Z,1014.9
2023-02-26T16:08:31.757Z,1014.9
2023-02-26T16:14:10.616Z,1014.9
2023-02-26T16:19:59.343Z,1015
2023-02-26T16:25:37.346Z,1014.9
2023-02-26T16:31:00.114Z,1014.9
2023-02-26T16:42:08.199Z,1014.7
2023-02-26T16:47:44.456Z,1014.7
2023-02-26T16:53:16.877Z,1014.6
2023-02-26T16:58:57.819Z,1014.7
2023-02-26T17:04:22.458Z,1014.6
2023-02-26T17:10:10.284Z,1014.7
2023-02-26T17:15:25.339Z,1014.9
2023-02-26T17:20:56.614Z,1014.9
2023-02-26T17:26:31.322Z,1015.1
2023-02-26T17:32:07.448Z,1015.3
2023-02-26T17:37:41.697Z,1015.4
2023-02-26T17:43:13.501Z,1015.4
2023-02-26T17:48:48.697Z,1015.6
2023-02-26T17:54:22.562Z,1015.6
2023-02-26T17:59:53.734Z,1015.7
2023-02-26T18:05:32.402Z,1015.8
2023-02-26T18:11:26.301Z,1015.7
2023-02-26T18:16:55.300Z,1015.9
2023-02-26T18:22:22.544Z,1016
2023-02-26T18:28:04.935Z,1016
2023-02-26T18:33:30.454Z,1016.1
2023-02-26T18:38:48.738Z,1016.4
2023-02-26T18:44:48.289Z,1016.1
2023-02-26T18:49:59.853Z,1016.3
2023-02-26T18:55:31.300Z,1016.1
2023-02-26T19:01:28.401Z,1016
2023-02-26T19:06:39.561Z,1016.1
2023-02-26T19:12:16.469Z,1016.3
2023-02-26T19:17:57.307Z,1016.1
2023-02-26T19:23:46.955Z,1016.3
2023-02-26T19:29:12.787Z,1016.5
2023-02-26T19:34:39.821Z,1016.6
2023-02-26T19:40:18.475Z,1016.4
2023-02-26T19:45:59.081Z,1016.4
2023-02-26T19:51:15.175Z,1016.4
2023-02-26T19:57:08.762Z,1016.4
2023-02-26T20:02:33.547Z,1016.5
2023-02-26T20:08:17.233Z,1016.5
2023-02-26T20:13:34.663Z,1016.5
2023-02-26T20:18:58.686Z,1016.7
2023-02-26T20:24:51.971Z,1016.8
2023-02-26T20:30:16.484Z,1016.6
2023-02-26T20:35:47.281Z,1016.7
2023-02-26T20:41:29.758Z,1016.6
2023-02-26T20:46:56.930Z,1016.8
2023-02-26T20:52:34.918Z,1016.7
2023-02-26T20:57:56.083Z,1016.8
2023-02-26T21:03:49.702Z,1016.9
2023-02-26T21:09:24.256Z,1017
2023-02-26T21:14:34.615Z,1017.2
2023-02-26T21:20:34.644Z,1017
2023-02-26T21:25:52.036Z,1017.1
2023-02-26T21:31:28.962Z,1017
2023-02-26T21:37:07.818Z,1017
2023-02-26T21:42:43.544Z,1017.1
2023-02-26T21:48:22.839Z,1017.2
2023-02-26T21:53:37.324Z,1017.1
2023-02-26T21:59:10.857Z,1017.1
2023-02-26T22:04:44.979Z,1017.1
2023-02-26T22:10:10.675Z,1017.1
2023-02-26T22:16:07.947Z,1017
2023-02-26T22:21:45.718Z,1017
2023-02-26T22:26:55.768Z,1017
2023-02-26T22:32:47.626Z,1017.1
2023-02-26T22:38:20.519Z,1017.2
2023-02-26T22:43:57.855Z,1017.1
2023-02-26T22:49:19.708Z,1017.1
2023-02-26T22:54:57.803Z,1017.2
2023-02-26T23:00:32.693Z,1017
2023-02-26T23:06:06.618Z,1017.2
2023-02-26T23:11:44.657Z,1017.1
2023-02-26T23:17:03.438Z,1017.2
2023-02-26T23:22:42.949Z,1017
2023-02-26T23:28:10.297Z,1017.2
2023-02-26T23:33:38.515Z,1017.2
2023-02-26T23:39:32.269Z,1017.3
2023-02-26T23:44:51.013Z,1017.2
2023-02-26T23:50:34.784Z,1017.2
2023-02-26T23:55:52.877Z,1017.1
